METAR Data
IDs: Format: Raw Decoded Include TAF

Data at: 1058 UTC 28 Sep 2021

LESO 281030Z 05004KT 360V080 9999 FEW011 19/16 Q1021